sensor_id;sensor_type;location;lat;lon;timestamp;P1;durP1;ratioP1;P2;durP2;ratioP2
56297;SDS011;42208;6.376;-10.782;2023-02-15T00:01:13;271.13;;;75.90;;
56297;SDS011;42208;6.376;-10.782;2023-02-15T00:03:42;260.67;;;81.93;;
56297;SDS011;42208;6.376;-10.782;2023-02-15T00:06:10;283.50;;;91.68;;
56297;SDS011;42208;6.376;-10.782;2023-02-15T00:08:38;303.38;;;92.15;;
56297;SDS011;42208;6.376;-10.782;2023-02-15T00:11:10;230.35;;;69.47;;
56297;SDS011;42208;6.376;-10.782;2023-02-15T00:13:41;191.68;;;56.67;;
56297;SDS011;42208;6.376;-10.782;2023-02-15T00:16:11;168.35;;;49.30;;
56297;SDS011;42208;6.376;-10.782;2023-02-15T00:18:40;185.20;;;45.38;;
56297;SDS011;42208;6.376;-10.782;2023-02-15T00:21:09;157.25;;;44.65;;
56297;SDS011;42208;6.376;-10.782;2023-02-15T00:23:38;181.13;;;43.65;;
56297;SDS011;42208;6.376;-10.782;2023-02-15T00:26:06;156.65;;;39.50;;
56297;SDS011;42208;6.376;-10.782;2023-02-15T00:28:45;156.65;;;41.15;;
56297;SDS011;42208;6.376;-10.782;2023-02-15T00:31:14;146.68;;;40.42;;
56297;SDS011;42208;6.376;-10.782;2023-02-15T00:33:42;150.85;;;45.05;;
56297;SDS011;42208;6.376;-10.782;2023-02-15T00:36:11;166.40;;;46.28;;
56297;SDS011;42208;6.376;-10.782;2023-02-15T00:38:40;174.80;;;48.72;;
56297;SDS011;42208;6.376;-10.782;2023-02-15T00:41:09;194.48;;;53.22;;
56297;SDS011;42208;6.376;-10.782;2023-02-15T00:43:38;198.52;;;58.80;;
56297;SDS011;42208;6.376;-10.782;2023-02-15T00:46:06;219.95;;;64.85;;
56297;SDS011;42208;6.376;-10.782;2023-02-15T00:48:34;213.68;;;65.22;;
56297;SDS011;42208;6.376;-10.782;2023-02-15T00:51:03;206.90;;;60.95;;
56297;SDS011;42208;6.376;-10.782;2023-02-15T00:53:31;188.98;;;57.08;;
56297;SDS011;42208;6.376;-10.782;2023-02-15T00:55:59;166.70;;;54.03;;
56297;SDS011;42208;6.376;-10.782;2023-02-15T00:58:28;148.30;;;46.35;;
56297;SDS011;42208;6.376;-10.782;2023-02-15T01:01:02;117.05;;;35.72;;
56297;SDS011;42208;6.376;-10.782;2023-02-15T01:03:32;94.85;;;30.38;;
56297;SDS011;42208;6.376;-10.782;2023-02-15T01:06:02;88.57;;;29.63;;
56297;SDS011;42208;6.376;-10.782;2023-02-15T01:08:31;79.88;;;27.15;;
56297;SDS011;42208;6.376;-10.782;2023-02-15T01:11:06;82.70;;;27.90;;
56297;SDS011;42208;6.376;-10.782;2023-02-15T01:13:39;75.65;;;26.17;;
56297;SDS011;42208;6.376;-10.782;2023-02-15T01:16:08;79.30;;;25.58;;
56297;SDS011;42208;6.376;-10.782;2023-02-15T01:18:36;80.13;;;25.08;;
56297;SDS011;42208;6.376;-10.782;2023-02-15T01:21:08;80.90;;;24.73;;
56297;SDS011;42208;6.376;-10.782;2023-02-15T01:23:43;78.30;;;22.50;;
56297;SDS011;42208;6.376;-10.782;2023-02-15T01:26:12;69.95;;;22.77;;
56297;SDS011;42208;6.376;-10.782;2023-02-15T01:28:42;80.15;;;22.33;;
56297;SDS011;42208;6.376;-10.782;2023-02-15T01:31:15;69.40;;;21.55;;
56297;SDS011;42208;6.376;-10.782;2023-02-15T01:33:46;79.75;;;21.65;;
56297;SDS011;42208;6.376;-10.782;2023-02-15T01:36:15;71.60;;;20.10;;
56297;SDS011;42208;6.376;-10.782;2023-02-15T01:38:44;70.80;;;20.48;;
56297;SDS011;42208;6.376;-10.782;2023-02-15T01:41:30;83.30;;;21.27;;
56297;SDS011;42208;6.376;-10.782;2023-02-15T01:44:00;78.40;;;22.30;;
56297;SDS011;42208;6.376;-10.782;2023-02-15T01:46:40;74.35;;;21.10;;
56297;SDS011;42208;6.376;-10.782;2023-02-15T01:49:18;76.57;;;21.65;;
56297;SDS011;42208;6.376;-10.782;2023-02-15T01:51:52;66.80;;;20.27;;
56297;SDS011;42208;6.376;-10.782;2023-02-15T01:54:25;71.43;;;20.10;;
56297;SDS011;42208;6.376;-10.782;2023-02-15T01:57:11;61.90;;;19.17;;
56297;SDS011;42208;6.376;-10.782;2023-02-15T01:59:46;64.40;;;19.73;;
56297;SDS011;42208;6.376;-10.782;2023-02-15T02:02:20;75.82;;;21.17;;
56297;SDS011;42208;6.376;-10.782;2023-02-15T02:04:52;65.07;;;20.10;;
56297;SDS011;42208;6.376;-10.782;2023-02-15T02:07:27;85.55;;;22.83;;
56297;SDS011;42208;6.376;-10.782;2023-02-15T02:09:59;77.07;;;21.75;;
56297;SDS011;42208;6.376;-10.782;2023-02-15T02:12:32;80.55;;;22.80;;
56297;SDS011;42208;6.376;-10.782;2023-02-15T02:15:02;75.38;;;22.10;;
56297;SDS011;42208;6.376;-10.782;2023-02-15T02:23:51;74.75;;;21.63;;
56297;SDS011;42208;6.376;-10.782;2023-02-15T02:34:40;76.03;;;22.10;;
56297;SDS011;42208;6.376;-10.782;2023-02-15T02:37:22;78.53;;;23.73;;
56297;SDS011;42208;6.376;-10.782;2023-02-15T02:42:56;68.10;;;20.05;;
56297;SDS011;42208;6.376;-10.782;2023-02-15T02:45:53;70.13;;;23.60;;
56297;SDS011;42208;6.376;-10.782;2023-02-15T02:48:39;69.40;;;23.35;;
56297;SDS011;42208;6.376;-10.782;2023-02-15T02:51:07;85.38;;;24.70;;
56297;SDS011;42208;6.376;-10.782;2023-02-15T02:53:36;78.80;;;26.30;;
56297;SDS011;42208;6.376;-10.782;2023-02-15T02:59:02;106.50;;;34.33;;
56297;SDS011;42208;6.376;-10.782;2023-02-15T03:01:37;101.10;;;32.92;;
56297;SDS011;42208;6.376;-10.782;2023-02-15T03:07:19;100.20;;;35.10;;
56297;SDS011;42208;6.376;-10.782;2023-02-15T03:09:53;112.55;;;37.35;;
56297;SDS011;42208;6.376;-10.782;2023-02-15T03:17:47;128.43;;;45.85;;
56297;SDS011;42208;6.376;-10.782;2023-02-15T03:20:26;115.20;;;40.55;;
56297;SDS011;42208;6.376;-10.782;2023-02-15T03:23:02;122.38;;;37.33;;
56297;SDS011;42208;6.376;-10.782;2023-02-15T03:25:42;113.68;;;38.13;;
56297;SDS011;42208;6.376;-10.782;2023-02-15T03:28:20;101.57;;;35.55;;
56297;SDS011;42208;6.376;-10.782;2023-02-15T03:30:57;95.72;;;33.33;;
56297;SDS011;42208;6.376;-10.782;2023-02-15T03:33:30;71.43;;;23.40;;
56297;SDS011;42208;6.376;-10.782;2023-02-15T03:36:04;70.18;;;23.48;;
56297;SDS011;42208;6.376;-10.782;2023-02-15T03:39:15;72.85;;;24.13;;
56297;SDS011;42208;6.376;-10.782;2023-02-15T03:47:53;155.40;;;55.35;;
56297;SDS011;42208;6.376;-10.782;2023-02-15T03:50:27;134.73;;;47.33;;
56297;SDS011;42208;6.376;-10.782;2023-02-15T03:52:58;217.98;;;85.82;;
56297;SDS011;42208;6.376;-10.782;2023-02-15T03:55:29;270.43;;;95.63;;
56297;SDS011;42208;6.376;-10.782;2023-02-15T03:57:58;334.88;;;118.15;;
56297;SDS011;42208;6.376;-10.782;2023-02-15T04:00:26;142.10;;;56.20;;
56297;SDS011;42208;6.376;-10.782;2023-02-15T04:05:35;87.80;;;30.77;;
56297;SDS011;42208;6.376;-10.782;2023-02-15T04:08:04;89.63;;;33.78;;
56297;SDS011;42208;6.376;-10.782;2023-02-15T04:10:32;126.00;;;39.08;;
56297;SDS011;42208;6.376;-10.782;2023-02-15T04:13:01;159.23;;;43.05;;
56297;SDS011;42208;6.376;-10.782;2023-02-15T04:15:29;136.55;;;40.67;;
56297;SDS011;42208;6.376;-10.782;2023-02-15T04:17:57;145.23;;;43.85;;
56297;SDS011;42208;6.376;-10.782;2023-02-15T04:20:25;157.77;;;41.97;;
56297;SDS011;42208;6.376;-10.782;2023-02-15T04:22:54;144.32;;;40.20;;
56297;SDS011;42208;6.376;-10.782;2023-02-15T04:25:22;146.20;;;43.40;;
56297;SDS011;42208;6.376;-10.782;2023-02-15T04:27:51;143.27;;;38.53;;
56297;SDS011;42208;6.376;-10.782;2023-02-15T04:30:21;150.30;;;46.15;;
56297;SDS011;42208;6.376;-10.782;2023-02-15T04:32:53;137.88;;;36.95;;
56297;SDS011;42208;6.376;-10.782;2023-02-15T04:35:22;120.47;;;34.67;;
56297;SDS011;42208;6.376;-10.782;2023-02-15T04:37:50;103.72;;;32.67;;
56297;SDS011;42208;6.376;-10.782;2023-02-15T04:40:18;112.82;;;34.22;;
56297;SDS011;42208;6.376;-10.782;2023-02-15T04:42:47;129.32;;;39.35;;
56297;SDS011;42208;6.376;-10.782;2023-02-15T04:45:15;134.48;;;40.05;;
56297;SDS011;42208;6.376;-10.782;2023-02-15T04:47:44;121.35;;;37.58;;
56297;SDS011;42208;6.376;-10.782;2023-02-15T04:50:13;114.75;;;34.28;;
56297;SDS011;42208;6.376;-10.782;2023-02-15T04:52:41;106.50;;;32.78;;
56297;SDS011;42208;6.376;-10.782;2023-02-15T04:55:09;92.30;;;28.70;;
56297;SDS011;42208;6.376;-10.782;2023-02-15T04:57:37;81.47;;;26.30;;
56297;SDS011;42208;6.376;-10.782;2023-02-15T05:00:06;91.13;;;26.58;;
56297;SDS011;42208;6.376;-10.782;2023-02-15T05:02:34;77.95;;;27.05;;
56297;SDS011;42208;6.376;-10.782;2023-02-15T05:05:03;77.25;;;26.02;;
56297;SDS011;42208;6.376;-10.782;2023-02-15T05:07:31;88.60;;;25.50;;
56297;SDS011;42208;6.376;-10.782;2023-02-15T05:09:59;79.85;;;24.77;;
56297;SDS011;42208;6.376;-10.782;2023-02-15T05:12:28;86.70;;;26.70;;
56297;SDS011;42208;6.376;-10.782;2023-02-15T05:14:56;82.78;;;26.73;;
56297;SDS011;42208;6.376;-10.782;2023-02-15T05:17:24;95.95;;;31.05;;
56297;SDS011;42208;6.376;-10.782;2023-02-15T05:19:52;109.25;;;34.53;;
56297;SDS011;42208;6.376;-10.782;2023-02-15T05:22:21;80.20;;;28.55;;
56297;SDS011;42208;6.376;-10.782;2023-02-15T05:24:49;95.70;;;28.92;;
56297;SDS011;42208;6.376;-10.782;2023-02-15T05:27:17;87.05;;;27.40;;
56297;SDS011;42208;6.376;-10.782;2023-02-15T05:29:45;94.30;;;26.67;;
56297;SDS011;42208;6.376;-10.782;2023-02-15T05:32:14;86.35;;;24.60;;
56297;SDS011;42208;6.376;-10.782;2023-02-15T05:34:43;80.68;;;25.58;;
56297;SDS011;42208;6.376;-10.782;2023-02-15T05:37:11;87.45;;;25.40;;
56297;SDS011;42208;6.376;-10.782;2023-02-15T05:39:39;84.50;;;27.27;;
56297;SDS011;42208;6.376;-10.782;2023-02-15T05:42:08;88.38;;;26.63;;
56297;SDS011;42208;6.376;-10.782;2023-02-15T05:44:36;81.10;;;24.92;;
56297;SDS011;42208;6.376;-10.782;2023-02-15T05:47:05;83.57;;;27.90;;
56297;SDS011;42208;6.376;-10.782;2023-02-15T05:49:33;88.25;;;27.13;;
56297;SDS011;42208;6.376;-10.782;2023-02-15T05:52:02;88.55;;;27.55;;
56297;SDS011;42208;6.376;-10.782;2023-02-15T05:54:31;88.93;;;27.58;;
56297;SDS011;42208;6.376;-10.782;2023-02-15T05:56:59;103.22;;;27.83;;
56297;SDS011;42208;6.376;-10.782;2023-02-15T05:59:27;97.10;;;29.05;;
56297;SDS011;42208;6.376;-10.782;2023-02-15T06:01:56;90.43;;;28.73;;
56297;SDS011;42208;6.376;-10.782;2023-02-15T06:04:24;95.05;;;27.75;;
56297;SDS011;42208;6.376;-10.782;2023-02-15T06:06:52;104.63;;;27.52;;
56297;SDS011;42208;6.376;-10.782;2023-02-15T06:09:21;93.55;;;27.50;;
56297;SDS011;42208;6.376;-10.782;2023-02-15T06:11:49;106.55;;;27.08;;
56297;SDS011;42208;6.376;-10.782;2023-02-15T06:14:17;93.18;;;27.40;;
56297;SDS011;42208;6.376;-10.782;2023-02-15T06:16:45;110.32;;;28.02;;
56297;SDS011;42208;6.376;-10.782;2023-02-15T06:19:14;90.82;;;27.05;;
56297;SDS011;42208;6.376;-10.782;2023-02-15T06:21:42;102.15;;;26.75;;
56297;SDS011;42208;6.376;-10.782;2023-02-15T06:24:10;96.22;;;26.55;;
56297;SDS011;42208;6.376;-10.782;2023-02-15T06:26:39;96.22;;;27.15;;
56297;SDS011;42208;6.376;-10.782;2023-02-15T06:29:07;90.30;;;26.63;;
56297;SDS011;42208;6.376;-10.782;2023-02-15T06:31:35;118.60;;;28.83;;
56297;SDS011;42208;6.376;-10.782;2023-02-15T06:34:04;106.13;;;29.52;;
56297;SDS011;42208;6.376;-10.782;2023-02-15T06:36:32;130.77;;;32.88;;
56297;SDS011;42208;6.376;-10.782;2023-02-15T06:39:00;121.68;;;30.13;;
56297;SDS011;42208;6.376;-10.782;2023-02-15T06:41:28;107.13;;;29.23;;
56297;SDS011;42208;6.376;-10.782;2023-02-15T06:43:57;125.15;;;29.38;;
56297;SDS011;42208;6.376;-10.782;2023-02-15T06:46:25;121.22;;;31.83;;
56297;SDS011;42208;6.376;-10.782;2023-02-15T07:01:09;141.77;;;38.22;;
56297;SDS011;42208;6.376;-10.782;2023-02-15T07:06:38;158.82;;;42.28;;
56297;SDS011;42208;6.376;-10.782;2023-02-15T07:09:12;190.40;;;47.30;;
56297;SDS011;42208;6.376;-10.782;2023-02-15T07:12:21;175.52;;;41.70;;
56297;SDS011;42208;6.376;-10.782;2023-02-15T07:14:49;171.25;;;44.58;;
56297;SDS011;42208;6.376;-10.782;2023-02-15T07:17:18;181.55;;;45.35;;
56297;SDS011;42208;6.376;-10.782;2023-02-15T07:20:03;161.13;;;48.85;;
56297;SDS011;42208;6.376;-10.782;2023-02-15T07:22:37;171.65;;;56.13;;
56297;SDS011;42208;6.376;-10.782;2023-02-15T07:25:34;165.65;;;46.83;;
56297;SDS011;42208;6.376;-10.782;2023-02-15T07:28:03;158.65;;;39.35;;
56297;SDS011;42208;6.376;-10.782;2023-02-15T07:30:31;156.10;;;40.00;;
56297;SDS011;42208;6.376;-10.782;2023-02-15T07:33:00;151.15;;;37.67;;
56297;SDS011;42208;6.376;-10.782;2023-02-15T07:35:31;148.15;;;39.63;;
56297;SDS011;42208;6.376;-10.782;2023-02-15T07:38:00;147.77;;;39.75;;
56297;SDS011;42208;6.376;-10.782;2023-02-15T07:40:40;142.07;;;37.08;;
56297;SDS011;42208;6.376;-10.782;2023-02-15T07:43:08;137.43;;;35.67;;
56297;SDS011;42208;6.376;-10.782;2023-02-15T07:45:37;153.38;;;37.05;;
56297;SDS011;42208;6.376;-10.782;2023-02-15T07:48:06;123.05;;;35.60;;
56297;SDS011;42208;6.376;-10.782;2023-02-15T07:50:34;174.68;;;38.20;;
56297;SDS011;42208;6.376;-10.782;2023-02-15T07:53:03;155.15;;;37.78;;
56297;SDS011;42208;6.376;-10.782;2023-02-15T07:55:31;165.63;;;39.65;;
56297;SDS011;42208;6.376;-10.782;2023-02-15T07:58:00;175.98;;;35.47;;
56297;SDS011;42208;6.376;-10.782;2023-02-15T08:00:28;150.68;;;35.17;;
56297;SDS011;42208;6.376;-10.782;2023-02-15T08:02:56;137.02;;;34.30;;
56297;SDS011;42208;6.376;-10.782;2023-02-15T08:05:25;137.10;;;34.63;;
56297;SDS011;42208;6.376;-10.782;2023-02-15T08:07:56;129.18;;;31.27;;
56297;SDS011;42208;6.376;-10.782;2023-02-15T08:10:24;163.45;;;33.22;;
56297;SDS011;42208;6.376;-10.782;2023-02-15T08:12:52;139.55;;;31.83;;
56297;SDS011;42208;6.376;-10.782;2023-02-15T08:15:20;125.30;;;31.15;;
56297;SDS011;42208;6.376;-10.782;2023-02-15T08:17:49;108.78;;;30.38;;
56297;SDS011;42208;6.376;-10.782;2023-02-15T08:20:17;129.02;;;31.50;;
56297;SDS011;42208;6.376;-10.782;2023-02-15T08:22:45;127.28;;;30.88;;
56297;SDS011;42208;6.376;-10.782;2023-02-15T08:25:14;127.78;;;32.10;;
56297;SDS011;42208;6.376;-10.782;2023-02-15T08:27:42;132.15;;;30.38;;
56297;SDS011;42208;6.376;-10.782;2023-02-15T08:30:11;131.93;;;28.17;;
56297;SDS011;42208;6.376;-10.782;2023-02-15T08:34:20;139.02;;;31.25;;
56297;SDS011;42208;6.376;-10.782;2023-02-15T08:36:49;129.35;;;28.90;;
56297;SDS011;42208;6.376;-10.782;2023-02-15T08:39:17;113.35;;;26.02;;
56297;SDS011;42208;6.376;-10.782;2023-02-15T08:41:46;124.82;;;27.70;;
56297;SDS011;42208;6.376;-10.782;2023-02-15T08:44:16;144.75;;;30.92;;
56297;SDS011;42208;6.376;-10.782;2023-02-15T08:46:47;148.75;;;34.88;;
56297;SDS011;42208;6.376;-10.782;2023-02-15T08:49:20;141.52;;;33.40;;
56297;SDS011;42208;6.376;-10.782;2023-02-15T08:51:49;166.18;;;36.08;;
56297;SDS011;42208;6.376;-10.782;2023-02-15T08:54:21;120.03;;;31.80;;
56297;SDS011;42208;6.376;-10.782;2023-02-15T08:56:49;143.98;;;35.40;;
56297;SDS011;42208;6.376;-10.782;2023-02-15T08:59:19;160.82;;;37.00;;
56297;SDS011;42208;6.376;-10.782;2023-02-15T09:01:49;139.10;;;38.13;;
56297;SDS011;42208;6.376;-10.782;2023-02-15T09:04:23;139.27;;;39.97;;
56297;SDS011;42208;6.376;-10.782;2023-02-15T09:06:52;146.27;;;36.60;;
56297;SDS011;42208;6.376;-10.782;2023-02-15T09:09:20;143.48;;;35.03;;
56297;SDS011;42208;6.376;-10.782;2023-02-15T09:11:50;167.82;;;37.13;;
56297;SDS011;42208;6.376;-10.782;2023-02-15T09:14:25;164.32;;;39.20;;
56297;SDS011;42208;6.376;-10.782;2023-02-15T09:16:54;164.20;;;42.72;;
56297;SDS011;42208;6.376;-10.782;2023-02-15T09:19:23;146.43;;;36.40;;
56297;SDS011;42208;6.376;-10.782;2023-02-15T09:21:51;161.68;;;39.05;;
56297;SDS011;42208;6.376;-10.782;2023-02-15T09:24:20;146.43;;;37.20;;
56297;SDS011;42208;6.376;-10.782;2023-02-15T09:26:49;146.52;;;38.85;;
56297;SDS011;42208;6.376;-10.782;2023-02-15T09:29:17;186.45;;;43.10;;
56297;SDS011;42208;6.376;-10.782;2023-02-15T09:31:47;183.88;;;40.08;;
56297;SDS011;42208;6.376;-10.782;2023-02-15T09:34:18;170.07;;;38.92;;
56297;SDS011;42208;6.376;-10.782;2023-02-15T09:36:47;233.20;;;45.60;;
56297;SDS011;42208;6.376;-10.782;2023-02-15T09:47:22;147.68;;;32.05;;
56297;SDS011;42208;6.376;-10.782;2023-02-15T09:50:16;190.13;;;33.90;;
56297;SDS011;42208;6.376;-10.782;2023-02-15T09:56:02;138.27;;;30.52;;
56297;SDS011;42208;6.376;-10.782;2023-02-15T10:27:47;113.30;;;22.98;;
56297;SDS011;42208;6.376;-10.782;2023-02-15T10:30:18;105.68;;;25.23;;
56297;SDS011;42208;6.376;-10.782;2023-02-15T10:33:14;101.22;;;25.13;;
56297;SDS011;42208;6.376;-10.782;2023-02-15T10:38:48;94.93;;;19.70;;
56297;SDS011;42208;6.376;-10.782;2023-02-15T10:41:33;110.57;;;21.27;;
56297;SDS011;42208;6.376;-10.782;2023-02-15T10:44:24;82.15;;;20.55;;
56297;SDS011;42208;6.376;-10.782;2023-02-15T10:53:20;99.47;;;24.35;;
56297;SDS011;42208;6.376;-10.782;2023-02-15T11:01:27;74.00;;;19.05;;
56297;SDS011;42208;6.376;-10.782;2023-02-15T11:06:58;163.98;;;25.85;;
56297;SDS011;42208;6.376;-10.782;2023-02-15T11:09:33;84.72;;;19.35;;
56297;SDS011;42208;6.376;-10.782;2023-02-15T11:12:08;92.53;;;20.85;;
56297;SDS011;42208;6.376;-10.782;2023-02-15T11:17:43;107.70;;;23.70;;
56297;SDS011;42208;6.376;-10.782;2023-02-15T11:20:33;116.03;;;26.15;;
56297;SDS011;42208;6.376;-10.782;2023-02-15T11:23:21;99.70;;;21.83;;
56297;SDS011;42208;6.376;-10.782;2023-02-15T11:25:56;118.80;;;26.08;;
56297;SDS011;42208;6.376;-10.782;2023-02-15T11:37:19;97.85;;;23.30;;
56297;SDS011;42208;6.376;-10.782;2023-02-15T11:39:53;88.88;;;22.98;;
56297;SDS011;42208;6.376;-10.782;2023-02-15T11:42:22;81.53;;;17.95;;
56297;SDS011;42208;6.376;-10.782;2023-02-15T11:47:31;91.53;;;25.77;;
56297;SDS011;42208;6.376;-10.782;2023-02-15T11:50:00;92.95;;;21.83;;
56297;SDS011;42208;6.376;-10.782;2023-02-15T11:52:29;74.50;;;21.13;;
56297;SDS011;42208;6.376;-10.782;2023-02-15T11:54:57;105.25;;;22.55;;
56297;SDS011;42208;6.376;-10.782;2023-02-15T11:57:27;105.97;;;22.50;;
56297;SDS011;42208;6.376;-10.782;2023-02-15T12:00:02;69.70;;;17.80;;
56297;SDS011;42208;6.376;-10.782;2023-02-15T12:02:57;55.25;;;14.25;;
56297;SDS011;42208;6.376;-10.782;2023-02-15T12:05:26;69.45;;;16.08;;
56297;SDS011;42208;6.376;-10.782;2023-02-15T12:08:02;73.63;;;17.33;;
56297;SDS011;42208;6.376;-10.782;2023-02-15T12:10:55;66.55;;;14.23;;
56297;SDS011;42208;6.376;-10.782;2023-02-15T12:13:28;83.47;;;15.95;;
56297;SDS011;42208;6.376;-10.782;2023-02-15T12:15:57;64.85;;;15.55;;
56297;SDS011;42208;6.376;-10.782;2023-02-15T12:18:38;71.13;;;16.95;;
56297;SDS011;42208;6.376;-10.782;2023-02-15T12:21:10;77.22;;;17.10;;
56297;SDS011;42208;6.376;-10.782;2023-02-15T12:23:57;70.40;;;14.48;;
56297;SDS011;42208;6.376;-10.782;2023-02-15T12:26:43;54.58;;;14.25;;
56297;SDS011;42208;6.376;-10.782;2023-02-15T12:29:17;57.30;;;14.40;;
56297;SDS011;42208;6.376;-10.782;2023-02-15T12:34:23;70.95;;;16.30;;
56297;SDS011;42208;6.376;-10.782;2023-02-15T12:36:57;55.20;;;13.93;;
56297;SDS011;42208;6.376;-10.782;2023-02-15T12:39:30;75.97;;;15.20;;
56297;SDS011;42208;6.376;-10.782;2023-02-15T12:42:01;71.13;;;17.50;;
56297;SDS011;42208;6.376;-10.782;2023-02-15T12:44:52;70.55;;;18.63;;
56297;SDS011;42208;6.376;-10.782;2023-02-15T12:47:25;80.75;;;18.65;;
56297;SDS011;42208;6.376;-10.782;2023-02-15T12:50:10;81.03;;;18.23;;
56297;SDS011;42208;6.376;-10.782;2023-02-15T12:52:49;81.05;;;18.92;;
56297;SDS011;42208;6.376;-10.782;2023-02-15T12:55:32;83.97;;;17.15;;
56297;SDS011;42208;6.376;-10.782;2023-02-15T13:00:42;83.93;;;16.13;;
56297;SDS011;42208;6.376;-10.782;2023-02-15T13:03:20;70.43;;;16.33;;
56297;SDS011;42208;6.376;-10.782;2023-02-15T13:05:50;64.88;;;16.58;;
56297;SDS011;42208;6.376;-10.782;2023-02-15T13:09:07;62.35;;;15.27;;
56297;SDS011;42208;6.376;-10.782;2023-02-15T13:11:21;54.92;;;13.43;;
56297;SDS011;42208;6.376;-10.782;2023-02-15T13:14:01;62.95;;;17.70;;
56297;SDS011;42208;6.376;-10.782;2023-02-15T13:16:41;70.90;;;24.20;;
56297;SDS011;42208;6.376;-10.782;2023-02-15T13:19:16;93.85;;;31.00;;
56297;SDS011;42208;6.376;-10.782;2023-02-15T13:21:55;146.45;;;47.28;;
56297;SDS011;42208;6.376;-10.782;2023-02-15T13:24:25;72.15;;;19.80;;
56297;SDS011;42208;6.376;-10.782;2023-02-15T13:26:59;169.48;;;57.63;;
56297;SDS011;42208;6.376;-10.782;2023-02-15T13:29:46;92.85;;;22.35;;
56297;SDS011;42208;6.376;-10.782;2023-02-15T13:35:00;86.22;;;17.65;;
56297;SDS011;42208;6.376;-10.782;2023-02-15T13:40:25;127.07;;;39.30;;
56297;SDS011;42208;6.376;-10.782;2023-02-15T13:48:51;113.72;;;34.35;;
56297;SDS011;42208;6.376;-10.782;2023-02-15T13:51:40;112.95;;;39.55;;
56297;SDS011;42208;6.376;-10.782;2023-02-15T14:11:08;101.88;;;29.60;;
56297;SDS011;42208;6.376;-10.782;2023-02-15T14:16:45;109.15;;;30.33;;
56297;SDS011;42208;6.376;-10.782;2023-02-15T14:19:42;117.85;;;40.63;;
56297;SDS011;42208;6.376;-10.782;2023-02-15T14:22:23;109.78;;;37.30;;
56297;SDS011;42208;6.376;-10.782;2023-02-15T14:27:47;106.63;;;35.03;;
56297;SDS011;42208;6.376;-10.782;2023-02-15T14:30:41;91.72;;;35.00;;
56297;SDS011;42208;6.376;-10.782;2023-02-15T14:35:41;109.05;;;37.28;;
56297;SDS011;42208;6.376;-10.782;2023-02-15T14:38:58;110.30;;;34.78;;
56297;SDS011;42208;6.376;-10.782;2023-02-15T14:41:16;118.35;;;42.55;;
56297;SDS011;42208;6.376;-10.782;2023-02-15T14:44:04;118.00;;;40.75;;
56297;SDS011;42208;6.376;-10.782;2023-02-15T14:49:47;105.80;;;32.72;;
56297;SDS011;42208;6.376;-10.782;2023-02-15T14:52:16;85.85;;;30.33;;
56297;SDS011;42208;6.376;-10.782;2023-02-15T15:05:07;81.18;;;24.33;;
56297;SDS011;42208;6.376;-10.782;2023-02-15T15:12:50;89.68;;;21.67;;
56297;SDS011;42208;6.376;-10.782;2023-02-15T15:29:01;95.65;;;21.30;;
56297;SDS011;42208;6.376;-10.782;2023-02-15T15:42:23;85.18;;;22.45;;
56297;SDS011;42208;6.376;-10.782;2023-02-15T15:45:19;74.35;;;21.00;;
56297;SDS011;42208;6.376;-10.782;2023-02-15T15:50:53;124.13;;;25.98;;
56297;SDS011;42208;6.376;-10.782;2023-02-15T15:56:28;108.68;;;27.67;;
56297;SDS011;42208;6.376;-10.782;2023-02-15T15:58:55;89.05;;;24.15;;
56297;SDS011;42208;6.376;-10.782;2023-02-15T16:01:27;77.63;;;20.85;;
56297;SDS011;42208;6.376;-10.782;2023-02-15T16:03:58;91.00;;;23.90;;
56297;SDS011;42208;6.376;-10.782;2023-02-15T16:09:09;86.18;;;24.08;;
56297;SDS011;42208;6.376;-10.782;2023-02-15T16:11:47;87.45;;;22.25;;
56297;SDS011;42208;6.376;-10.782;2023-02-15T16:14:30;77.53;;;20.65;;
56297;SDS011;42208;6.376;-10.782;2023-02-15T16:17:22;64.65;;;15.18;;
56297;SDS011;42208;6.376;-10.782;2023-02-15T16:20:03;93.80;;;22.40;;
56297;SDS011;42208;6.376;-10.782;2023-02-15T16:22:43;63.10;;;16.27;;
56297;SDS011;42208;6.376;-10.782;2023-02-15T16:27:47;100.55;;;21.88;;
56297;SDS011;42208;6.376;-10.782;2023-02-15T16:32:46;79.78;;;20.70;;
56297;SDS011;42208;6.376;-10.782;2023-02-15T16:35:21;91.72;;;19.52;;
56297;SDS011;42208;6.376;-10.782;2023-02-15T16:37:50;58.88;;;19.30;;
56297;SDS011;42208;6.376;-10.782;2023-02-15T16:42:56;90.45;;;22.52;;
56297;SDS011;42208;6.376;-10.782;2023-02-15T16:45:28;92.13;;;27.08;;
56297;SDS011;42208;6.376;-10.782;2023-02-15T16:47:59;80.35;;;23.95;;
56297;SDS011;42208;6.376;-10.782;2023-02-15T16:50:36;109.28;;;30.10;;
56297;SDS011;42208;6.376;-10.782;2023-02-15T16:53:07;73.57;;;20.27;;
56297;SDS011;42208;6.376;-10.782;2023-02-15T16:55:44;62.42;;;20.00;;
56297;SDS011;42208;6.376;-10.782;2023-02-15T16:58:19;77.82;;;22.65;;
56297;SDS011;42208;6.376;-10.782;2023-02-15T17:01:10;97.40;;;28.15;;
56297;SDS011;42208;6.376;-10.782;2023-02-15T17:03:42;72.90;;;19.58;;
56297;SDS011;42208;6.376;-10.782;2023-02-15T17:06:23;79.25;;;19.55;;
56297;SDS011;42208;6.376;-10.782;2023-02-15T17:08:53;103.78;;;27.95;;
56297;SDS011;42208;6.376;-10.782;2023-02-15T17:11:40;91.60;;;27.17;;
56297;SDS011;42208;6.376;-10.782;2023-02-15T17:14:12;106.28;;;29.33;;
56297;SDS011;42208;6.376;-10.782;2023-02-15T17:19:27;82.90;;;26.83;;
56297;SDS011;42208;6.376;-10.782;2023-02-15T17:22:01;101.65;;;27.00;;
56297;SDS011;42208;6.376;-10.782;2023-02-15T17:24:38;111.38;;;30.90;;
56297;SDS011;42208;6.376;-10.782;2023-02-15T17:27:12;83.25;;;24.80;;
56297;SDS011;42208;6.376;-10.782;2023-02-15T17:29:52;104.50;;;29.65;;
56297;SDS011;42208;6.376;-10.782;2023-02-15T17:32:29;91.75;;;26.58;;
56297;SDS011;42208;6.376;-10.782;2023-02-15T17:37:32;88.88;;;24.20;;
56297;SDS011;42208;6.376;-10.782;2023-02-15T17:40:29;91.23;;;28.77;;
56297;SDS011;42208;6.376;-10.782;2023-02-15T17:42:59;103.90;;;29.33;;
56297;SDS011;42208;6.376;-10.782;2023-02-15T17:45:31;96.45;;;27.50;;
56297;SDS011;42208;6.376;-10.782;2023-02-15T17:48:09;98.95;;;30.48;;
56297;SDS011;42208;6.376;-10.782;2023-02-15T17:50:45;101.50;;;31.20;;
56297;SDS011;42208;6.376;-10.782;2023-02-15T17:53:17;94.30;;;26.90;;
56297;SDS011;42208;6.376;-10.782;2023-02-15T17:55:46;111.45;;;31.75;;
56297;SDS011;42208;6.376;-10.782;2023-02-15T18:00:13;114.68;;;34.42;;
56297;SDS011;42208;6.376;-10.782;2023-02-15T18:02:42;139.50;;;44.22;;
56297;SDS011;42208;6.376;-10.782;2023-02-15T18:05:14;135.60;;;35.45;;
56297;SDS011;42208;6.376;-10.782;2023-02-15T18:07:43;102.68;;;31.30;;
56297;SDS011;42208;6.376;-10.782;2023-02-15T18:10:12;118.28;;;32.72;;
56297;SDS011;42208;6.376;-10.782;2023-02-15T18:12:45;118.25;;;33.53;;
56297;SDS011;42208;6.376;-10.782;2023-02-15T18:15:13;146.00;;;51.17;;
56297;SDS011;42208;6.376;-10.782;2023-02-15T18:17:43;215.50;;;93.03;;
56297;SDS011;42208;6.376;-10.782;2023-02-15T18:20:31;169.05;;;64.03;;
56297;SDS011;42208;6.376;-10.782;2023-02-15T18:23:02;236.70;;;95.07;;
56297;SDS011;42208;6.376;-10.782;2023-02-15T18:25:30;156.40;;;56.10;;
56297;SDS011;42208;6.376;-10.782;2023-02-15T18:27:59;168.38;;;56.53;;
56297;SDS011;42208;6.376;-10.782;2023-02-15T18:30:28;147.55;;;44.17;;